Terminal Aerodrome Forecast
Issued by NWS Cleveland, OH

Home | Current Version | Previous Version | Graphics & Text | Print | Product List | Glossary On
Versions: 1 2 3 4 5 6 7 8 9 10 11 12 13
000
FTUS41 KCLE 201700
TAFTOL
TAF
KTOL 201726Z 2018/2118 07010KT P6SM SCT120 OVC250
     FM210200 VRB03KT P6SM SCT070 OVC100
     FM211300 30008KT P6SM BKN050 OVC100=

USA.gov is the U.S. government's official web portal to all federal, state and local government web resources and services.